Time;durP1;ratioP1;P1;durP2;ratioP2;P2;SDS_P1;SDS_P2;PMS_P1;PMS_P2;Temp;Humidity;BMP_temperature;BMP_pressure;BME280_temperature;BME280_humidity;BME280_pressure;Samples;Min_cycle;Max_cycle;Signal;HPM_P1;HPM_P2
2023/10/19 00:01:25;;;;;;;28.93;16.17;;;9.40;58.10;;;;;;5017688;28;46559;-67
2023/10/19 00:03:53;;;;;;;28.07;16.80;;;9.50;57.70;;;;;;5017229;28;46499;-67
2023/10/19 00:06:18;;;;;;;26.70;15.50;;;9.60;57.30;;;;;;5015840;28;46767;-67
2023/10/19 00:08:44;;;;;;;24.20;16.43;;;9.70;57.00;;;;;;5018508;28;46454;-67
2023/10/19 00:11:21;;;;;;;26.47;16.80;;;9.70;57.00;;;;;;5017753;28;46803;-66
2023/10/19 00:13:51;;;;;;;23.77;16.03;;;9.70;56.90;;;;;;5018086;28;46465;-69
2023/10/19 00:16:17;;;;;;;27.87;16.67;;;9.70;56.70;;;;;;5016219;28;46737;-67
2023/10/19 00:18:49;;;;;;;32.10;16.80;;;9.80;56.60;;;;;;5019398;28;46449;-68
2023/10/19 00:21:25;;;;;;;26.20;16.13;;;9.80;56.60;;;;;;5017284;28;46354;-68
2023/10/19 00:23:56;;;;;;;25.00;16.20;;;9.90;56.50;;;;;;5018119;28;46604;-68
2023/10/19 00:26:25;;;;;;;26.33;15.73;;;9.90;56.30;;;;;;5014766;28;46429;-70
2023/10/19 00:28:57;;;;;;;23.70;15.10;;;9.80;56.10;;;;;;5019286;28;46364;-69
2023/10/19 00:31:24;;;;;;;24.53;14.57;;;9.90;56.00;;;;;;5016360;28;46693;-68
2023/10/19 00:33:54;;;;;;;26.70;15.37;;;9.90;55.90;;;;;;5017815;28;46382;-68
2023/10/19 00:36:20;;;;;;;23.23;14.13;;;9.90;56.00;;;;;;5017415;28;45995;-66
2023/10/19 00:41:30;;;;;;;21.20;14.30;;;9.90;56.20;;;;;;5017513;28;46956;-68
2023/10/19 00:44:11;;;;;;;23.53;15.60;;;9.80;56.40;;;;;;5017896;28;46739;-70
2023/10/19 00:46:43;;;;;;;23.57;14.60;;;9.90;56.50;;;;;;5017913;28;46987;-68
2023/10/19 00:49:14;;;;;;;21.60;13.90;;;9.80;56.30;;;;;;5017326;28;46020;-68
2023/10/19 00:54:42;;;;;;;23.67;14.67;;;9.80;56.70;;;;;;5015625;28;46429;-67
2023/10/19 00:57:10;;;;;;;19.90;13.47;;;9.80;56.70;;;;;;5015976;28;46450;-69
2023/10/19 00:59:47;;;;;;;23.57;15.27;;;9.70;57.00;;;;;;5019651;28;46830;-70
2023/10/19 01:02:21;;;;;;;24.43;15.30;;;9.70;57.10;;;;;;5015900;28;46510;-68
2023/10/19 01:05:07;;;;;;;22.90;14.77;;;9.70;56.90;;;;;;5017709;28;46636;-68
2023/10/19 01:07:37;;;;;;;20.50;14.50;;;9.80;56.80;;;;;;5018587;28;45851;-67
2023/10/19 01:10:05;;;;;;;33.10;16.27;;;9.80;56.50;;;;;;5017993;28;46356;-67
2023/10/19 01:15:18;;;;;;;23.93;14.10;;;9.80;56.60;;;;;;5016069;28;46259;-67
2023/10/19 01:17:57;;;;;;;25.13;15.70;;;9.90;56.40;;;;;;5017035;28;46451;-68
2023/10/19 01:28:42;;;;;;;21.43;15.17;;;9.80;57.30;;;;;;5015088;28;46598;-68
2023/10/19 01:31:22;;;;;;;26.20;15.23;;;9.70;57.70;;;;;;5018357;28;46498;-67
2023/10/19 01:33:48;;;;;;;21.87;14.87;;;9.70;57.60;;;;;;5017051;28;46513;-67
2023/10/19 01:36:24;;;;;;;26.03;16.03;;;9.80;57.50;;;;;;5015885;28;46436;-69
2023/10/19 01:38:54;;;;;;;23.27;14.70;;;9.80;58.60;;;;;;5017506;28;46402;-67
2023/10/19 01:41:20;;;;;;;22.67;14.70;;;9.80;57.20;;;;;;5018973;28;46398;-68
2023/10/19 01:43:48;;;;;;;23.93;14.80;;;9.80;57.10;;;;;;5015967;28;47277;-67
2023/10/19 01:46:22;;;;;;;22.27;15.47;;;9.90;57.20;;;;;;5020922;28;46531;-68
2023/10/19 01:48:53;;;;;;;23.10;15.27;;;9.90;57.00;;;;;;5017542;28;46240;-68
2023/10/19 01:51:20;;;;;;;23.87;14.67;;;10.00;56.00;;;;;;5017351;28;46398;-70
2023/10/19 01:53:47;;;;;;;23.83;14.80;;;10.00;55.80;;;;;;5016843;28;46940;-67
2023/10/19 01:56:14;;;;;;;20.60;14.07;;;10.00;55.80;;;;;;5016489;28;45806;-68
2023/10/19 01:58:41;;;;;;;21.83;13.90;;;10.10;55.70;;;;;;5015824;28;46397;-69
2023/10/19 02:01:14;;;;;;;20.83;13.93;;;10.00;56.30;;;;;;5017157;28;46518;-71
2023/10/19 02:03:43;;;;;;;22.63;15.33;;;10.10;55.70;;;;;;5016084;28;47366;-68
2023/10/19 02:06:17;;;;;;;25.47;16.33;;;10.10;55.90;;;;;;5016594;28;46426;-70
2023/10/19 02:08:50;;;;;;;24.60;14.93;;;10.10;55.80;;;;;;5016885;28;46450;-70
2023/10/19 02:11:19;;;;;;;21.07;15.03;;;10.10;55.90;;;;;;5013667;28;45968;-68
2023/10/19 02:13:49;;;;;;;23.20;16.00;;;10.10;55.90;;;;;;5016215;28;46846;-68
2023/10/19 02:16:16;;;;;;;21.43;15.40;;;10.10;55.80;;;;;;5015039;28;45907;-68
2023/10/19 02:18:43;;;;;;;22.27;14.93;;;10.10;55.70;;;;;;5015102;28;46884;-67
2023/10/19 02:21:11;;;;;;;21.07;13.90;;;10.10;55.90;;;;;;5016740;28;46696;-67
2023/10/19 02:23:39;;;;;;;25.13;14.77;;;10.10;55.70;;;;;;5016483;28;48219;-67
2023/10/19 02:26:05;;;;;;;25.50;15.90;;;10.10;55.50;;;;;;5015708;28;46513;-69
2023/10/19 02:28:31;;;;;;;29.80;15.03;;;10.10;55.30;;;;;;5016963;28;46829;-69
2023/10/19 02:31:10;;;;;;;24.13;15.83;;;10.10;55.30;;;;;;5019018;28;46928;-71
2023/10/19 02:33:36;;;;;;;24.80;15.20;;;10.10;55.30;;;;;;5018693;28;47359;-70
2023/10/19 02:36:03;;;;;;;25.27;16.00;;;10.10;55.30;;;;;;5020460;28;46402;-67
2023/10/19 02:38:29;;;;;;;23.10;14.60;;;10.10;55.10;;;;;;5018953;28;46523;-68
2023/10/19 02:40:55;;;;;;;21.67;15.10;;;10.10;55.10;;;;;;5021372;28;46391;-67
2023/10/19 02:43:23;;;;;;;26.90;16.40;;;10.20;56.30;;;;;;5019754;28;46929;-70
2023/10/19 02:45:49;;;;;;;23.90;15.30;;;10.10;55.10;;;;;;5017562;28;46422;-71
2023/10/19 02:48:15;;;;;;;24.00;15.83;;;10.20;55.20;;;;;;5016929;28;46694;-68
2023/10/19 02:50:42;;;;;;;24.23;15.50;;;10.20;55.10;;;;;;5007429;28;46424;-69
2023/10/19 02:53:07;;;;;;;21.50;15.00;;;10.20;55.20;;;;;;5016603;28;47185;-66
2023/10/19 02:55:33;;;;;;;22.10;15.13;;;10.20;55.40;;;;;;5016893;28;46492;-69
2023/10/19 02:57:59;;;;;;;22.60;14.87;;;10.20;55.40;;;;;;5017987;28;46501;-69
2023/10/19 03:00:32;;;;;;;22.10;14.90;;;10.20;55.40;;;;;;5016681;28;46618;-69
2023/10/19 03:02:59;;;;;;;25.33;15.80;;;10.20;55.40;;;;;;5017333;28;46621;-66
2023/10/19 03:05:26;;;;;;;23.73;15.13;;;10.20;55.50;;;;;;5015334;28;46778;-68
2023/10/19 03:07:52;;;;;;;23.90;14.90;;;10.30;55.50;;;;;;5018153;28;46363;-67
2023/10/19 03:10:33;;;;;;;21.97;15.50;;;10.20;55.50;;;;;;5017952;28;46709;-68
2023/10/19 03:12:59;;;;;;;26.23;14.93;;;10.30;55.50;;;;;;5015908;28;46127;-70
2023/10/19 03:15:27;;;;;;;20.93;15.00;;;10.40;55.40;;;;;;5016963;28;46683;-68
2023/10/19 03:17:52;;;;;;;21.50;15.37;;;10.40;55.30;;;;;;5017944;28;46531;-68
2023/10/19 03:20:23;;;;;;;24.10;15.33;;;10.40;55.30;;;;;;5017635;28;46594;-70
2023/10/19 03:22:49;;;;;;;20.90;14.53;;;10.50;55.30;;;;;;5019753;28;47008;-67
2023/10/19 03:28:11;;;;;;;21.10;15.10;;;10.50;55.20;;;;;;4997515;28;46434;-67
2023/10/19 03:30:38;;;;;;;23.53;14.47;;;10.50;55.20;;;;;;5016693;28;45887;-68
2023/10/19 03:33:05;;;;;;;22.63;14.50;;;10.50;55.50;;;;;;5017357;28;47301;-67
2023/10/19 03:35:30;;;;;;;18.60;13.20;;;10.50;55.50;;;;;;5016990;28;46371;-68
2023/10/19 03:38:00;;;;;;;28.17;15.40;;;10.50;55.50;;;;;;5019032;28;46741;-68
2023/10/19 03:40:31;;;;;;;23.30;14.70;;;10.50;55.40;;;;;;5016725;28;46320;-68
2023/10/19 03:42:56;;;;;;;24.10;15.33;;;10.60;55.70;;;;;;5017124;28;46790;-70
2023/10/19 03:45:24;;;;;;;22.87;14.43;;;10.60;55.60;;;;;;5019287;28;46449;-68
2023/10/19 03:47:53;;;;;;;20.27;14.30;;;10.60;55.50;;;;;;5020758;28;46490;-67
2023/10/19 03:50:21;;;;;;;22.70;15.27;;;10.60;55.30;;;;;;5018948;28;46493;-68
2023/10/19 03:52:47;;;;;;;23.57;14.10;;;10.70;55.30;;;;;;5015930;28;46653;-69
2023/10/19 03:55:18;;;;;;;20.27;13.73;;;10.60;55.20;;;;;;5018637;28;46513;-70
2023/10/19 03:57:55;;;;;;;21.50;14.30;;;10.60;55.30;;;;;;5018168;28;46609;-68
2023/10/19 04:00:28;;;;;;;23.60;14.20;;;10.60;55.40;;;;;;5016287;28;46477;-67
2023/10/19 04:02:55;;;;;;;24.00;14.67;;;10.60;55.50;;;;;;5018223;28;47974;-69
2023/10/19 04:05:22;;;;;;;27.23;15.33;;;10.60;55.50;;;;;;5016755;28;46474;-68
2023/10/19 04:07:57;;;;;;;21.40;14.43;;;10.60;55.60;;;;;;5018579;28;46374;-69
2023/10/19 04:13:02;;;;;;;26.70;15.43;;;10.50;55.70;;;;;;5019249;28;46507;-68
2023/10/19 04:15:35;;;;;;;22.07;15.70;;;10.50;55.90;;;;;;5017916;28;46481;-67
2023/10/19 04:18:02;;;;;;;21.57;14.90;;;10.40;56.00;;;;;;5018496;28;46383;-69
2023/10/19 04:20:29;;;;;;;29.13;14.80;;;10.50;56.00;;;;;;5017467;28;46600;-67
2023/10/19 04:23:05;;;;;;;24.30;14.10;;;10.50;56.10;;;;;;5019006;28;48019;-68
2023/10/19 04:25:31;;;;;;;22.33;16.40;;;10.50;56.10;;;;;;5019879;28;46323;-69
2023/10/19 04:27:57;;;;;;;22.90;15.97;;;10.50;55.80;;;;;;5018253;28;46669;-66
2023/10/19 04:30:22;;;;;;;23.47;14.80;;;10.50;55.90;;;;;;5018182;28;46378;-69
2023/10/19 04:32:50;;;;;;;22.10;15.00;;;10.50;55.90;;;;;;5019676;28;46446;-69
2023/10/19 04:35:22;;;;;;;23.80;15.43;;;10.60;56.00;;;;;;5017517;28;47268;-68
2023/10/19 04:37:52;;;;;;;22.73;15.77;;;10.50;56.10;;;;;;5016641;28;46446;-67
2023/10/19 04:40:22;;;;;;;20.13;14.70;;;10.50;56.40;;;;;;5018699;28;45910;-69
2023/10/19 04:42:50;;;;;;;26.60;16.00;;;10.50;56.50;;;;;;5018178;28;46067;-68
2023/10/19 04:45:16;;;;;;;25.93;14.70;;;10.50;56.70;;;;;;5017978;28;45847;-68
2023/10/19 04:47:41;;;;;;;21.70;14.40;;;10.50;56.80;;;;;;5018189;28;46391;-68
2023/10/19 04:50:10;;;;;;;23.30;14.40;;;10.50;57.10;;;;;;5017543;28;46418;-68
2023/10/19 04:52:36;;;;;;;19.73;13.97;;;10.50;57.20;;;;;;5015178;28;46626;-68
2023/10/19 04:55:02;;;;;;;22.03;14.80;;;10.50;57.30;;;;;;5017734;28;46425;-69
2023/10/19 04:57:28;;;;;;;19.33;13.63;;;10.50;57.40;;;;;;5017169;28;46379;-69
2023/10/19 04:59:55;;;;;;;19.90;13.93;;;10.50;57.30;;;;;;5019058;28;46418;-69
2023/10/19 05:02:20;;;;;;;21.17;13.90;;;10.50;57.20;;;;;;5016022;28;46582;-67
2023/10/19 05:04:46;;;;;;;21.00;14.80;;;10.50;57.10;;;;;;5015790;28;46397;-68
2023/10/19 05:07:14;;;;;;;22.67;14.60;;;10.60;57.10;;;;;;5017466;28;46472;-68
2023/10/19 05:09:40;;;;;;;23.67;14.10;;;10.70;56.80;;;;;;5016349;28;46675;-68
2023/10/19 05:12:09;;;;;;;20.23;13.80;;;10.80;56.60;;;;;;5017312;28;47728;-67
2023/10/19 05:14:38;;;;;;;18.93;13.40;;;10.90;56.30;;;;;;5013731;28;46521;-68
2023/10/19 05:17:05;;;;;;;26.03;14.60;;;10.90;56.20;;;;;;5015330;28;45862;-67
2023/10/19 05:19:34;;;;;;;19.57;13.97;;;10.90;56.30;;;;;;5014125;28;46588;-68
2023/10/19 05:22:01;;;;;;;18.40;13.03;;;11.00;56.20;;;;;;5016595;28;46728;-68
2023/10/19 05:24:28;;;;;;;18.23;13.00;;;11.00;56.10;;;;;;5017719;28;46486;-69
2023/10/19 05:26:54;;;;;;;16.47;12.77;;;11.00;56.10;;;;;;5017866;28;46195;-67
2023/10/19 05:29:20;;;;;;;19.50;12.47;;;11.10;56.10;;;;;;5018267;28;46523;-69
2023/10/19 05:31:46;;;;;;;19.50;12.77;;;11.10;56.20;;;;;;5017123;28;46400;-67
2023/10/19 05:34:12;;;;;;;22.00;13.50;;;11.10;56.20;;;;;;5017367;28;46434;-70
2023/10/19 05:36:39;;;;;;;19.47;13.70;;;11.10;56.40;;;;;;5015789;28;46419;-67
2023/10/19 05:39:07;;;;;;;16.47;12.40;;;11.10;56.40;;;;;;5017285;28;46500;-68
2023/10/19 05:41:34;;;;;;;17.20;12.43;;;11.10;56.60;;;;;;5016240;28;46210;-69
2023/10/19 05:43:59;;;;;;;19.57;11.77;;;11.00;56.50;;;;;;5013974;28;46512;-69
2023/10/19 05:46:25;;;;;;;17.17;12.20;;;11.10;56.50;;;;;;5016681;28;46440;-68
2023/10/19 05:48:53;;;;;;;23.07;12.20;;;11.20;56.40;;;;;;5017029;28;46514;-68
2023/10/19 05:51:19;;;;;;;14.60;11.13;;;11.20;56.20;;;;;;5018445;28;47236;-68
2023/10/19 05:53:44;;;;;;;19.47;12.73;;;11.30;56.00;;;;;;5018661;28;46411;-68
2023/10/19 05:56:13;;;;;;;17.50;11.93;;;11.30;55.90;;;;;;5014466;28;46408;-67
2023/10/19 05:58:39;;;;;;;17.47;11.10;;;11.40;55.70;;;;;;5016915;28;46466;-68
2023/10/19 06:01:04;;;;;;;16.63;10.23;;;11.40;55.70;;;;;;5016654;28;48538;-67
2023/10/19 06:03:30;;;;;;;19.67;11.47;;;11.50;55.60;;;;;;5017209;28;46279;-68
2023/10/19 06:05:56;;;;;;;20.23;11.37;;;11.60;55.50;;;;;;5019515;28;46395;-67
2023/10/19 06:08:25;;;;;;;15.57;10.90;;;11.60;55.20;;;;;;5019665;28;46651;-67
2023/10/19 06:10:53;;;;;;;13.07;9.90;;;11.70;55.40;;;;;;5021183;28;47244;-68
2023/10/19 06:13:20;;;;;;;19.90;10.60;;;11.70;55.50;;;;;;5019588;28;46489;-68
2023/10/19 06:15:46;;;;;;;13.97;9.67;;;11.70;55.50;;;;;;5019649;28;46334;-68
2023/10/19 06:18:13;;;;;;;13.23;9.73;;;11.80;55.40;;;;;;5017849;28;46603;-70
2023/10/19 06:20:45;;;;;;;11.90;9.13;;;11.80;55.40;;;;;;5020528;28;46381;-67
2023/10/19 06:23:12;;;;;;;11.73;8.53;;;11.80;55.30;;;;;;5020868;28;46426;-67
2023/10/19 06:25:38;;;;;;;12.63;9.10;;;11.80;55.60;;;;;;5018284;28;46385;-67
2023/10/19 06:28:04;;;;;;;15.87;9.83;;;11.90;55.80;;;;;;5021115;28;47231;-69
2023/10/19 06:30:30;;;;;;;14.13;9.77;;;12.00;55.70;;;;;;5018882;28;48458;-69
2023/10/19 06:33:00;;;;;;;11.10;7.87;;;12.10;55.50;;;;;;5017766;28;45807;-70
2023/10/19 06:35:27;;;;;;;12.80;9.27;;;12.20;55.00;;;;;;5019234;28;46701;-69
2023/10/19 06:37:57;;;;;;;13.63;8.87;;;12.40;54.90;;;;;;5020652;28;46484;-68
2023/10/19 06:40:23;;;;;;;15.63;8.40;;;12.50;54.60;;;;;;5017725;28;46990;-69
2023/10/19 06:42:49;;;;;;;14.13;8.63;;;12.60;54.30;;;;;;5018328;28;46487;-68
2023/10/19 06:45:18;;;;;;;11.57;7.70;;;12.70;54.10;;;;;;5018656;28;45876;-68
2023/10/19 06:47:46;;;;;;;11.13;7.57;;;12.90;54.30;;;;;;5018011;28;46423;-69
2023/10/19 06:50:18;;;;;;;13.90;8.57;;;13.10;54.50;;;;;;5019555;28;46653;-68
2023/10/19 06:52:46;;;;;;;18.73;8.43;;;13.20;54.40;;;;;;5017351;28;45824;-69
2023/10/19 06:55:16;;;;;;;16.40;8.50;;;13.40;53.80;;;;;;5019299;28;46512;-68
2023/10/19 06:57:47;;;;;;;12.27;8.50;;;13.40;53.60;;;;;;5019080;28;46494;-69
2023/10/19 07:00:20;;;;;;;13.33;7.70;;;13.40;54.90;;;;;;5019716;28;46459;-68
2023/10/19 07:02:53;;;;;;;15.50;6.67;;;13.50;53.80;;;;;;5018167;28;46490;-67
2023/10/19 07:05:29;;;;;;;12.80;7.30;;;13.50;53.90;;;;;;5017394;28;46355;-67
2023/10/19 07:07:56;;;;;;;12.03;6.70;;;13.60;54.10;;;;;;5016622;28;46686;-66
2023/10/19 07:10:23;;;;;;;12.13;7.50;;;13.60;54.00;;;;;;5018880;28;47045;-68
2023/10/19 07:12:53;;;;;;;13.10;7.57;;;13.70;53.40;;;;;;5018455;28;46875;-69
2023/10/19 07:15:19;;;;;;;12.10;8.83;;;13.80;53.20;;;;;;5018196;28;46315;-68
2023/10/19 07:17:46;;;;;;;15.90;9.00;;;13.80;53.10;;;;;;5017818;28;46577;-69
2023/10/19 07:22:56;;;;;;;18.20;9.00;;;13.80;53.00;;;;;;5018020;28;46149;-68
2023/10/19 07:25:25;;;;;;;19.87;9.43;;;13.80;53.10;;;;;;5020778;28;46700;-70
2023/10/19 07:27:52;;;;;;;20.20;7.63;;;13.80;53.00;;;;;;5017576;28;46369;-69
2023/10/19 07:30:21;;;;;;;16.80;8.17;;;13.90;52.90;;;;;;5018662;28;47089;-68
2023/10/19 07:32:59;;;;;;;23.73;7.60;;;14.00;52.80;;;;;;5018399;28;46512;-68
2023/10/19 07:35:30;;;;;;;36.23;9.40;;;14.00;52.30;;;;;;5018403;28;46472;-68
2023/10/19 07:37:56;;;;;;;16.40;7.20;;;14.10;52.10;;;;;;5018322;28;46525;-68
2023/10/19 07:40:23;;;;;;;14.30;6.93;;;14.20;52.20;;;;;;5018109;28;47019;-68
2023/10/19 07:42:51;;;;;;;18.57;7.30;;;14.10;52.40;;;;;;5016760;28;46484;-69
2023/10/19 07:45:17;;;;;;;16.23;6.50;;;14.20;52.20;;;;;;5019408;28;46425;-66
2023/10/19 07:47:44;;;;;;;15.30;6.87;;;14.30;52.00;;;;;;5019224;28;46597;-69
2023/10/19 07:50:17;;;;;;;11.30;6.67;;;14.40;51.60;;;;;;5018810;28;46902;-68
2023/10/19 07:52:48;;;;;;;13.07;6.80;;;14.50;51.30;;;;;;5016969;28;46163;-67
2023/10/19 07:55:14;;;;;;;21.00;7.00;;;14.50;51.20;;;;;;5001225;28;46582;-69
2023/10/19 07:57:43;;;;;;;27.93;8.73;;;14.50;51.20;;;;;;5018331;28;45885;-70
2023/10/19 08:00:09;;;;;;;16.00;7.90;;;14.50;51.20;;;;;;5017758;28;47566;-68
2023/10/19 08:02:37;;;;;;;25.17;7.80;;;14.60;51.10;;;;;;5015507;28;46661;-67
2023/10/19 08:05:04;;;;;;;17.13;7.30;;;14.70;50.90;;;;;;5018796;28;46527;-69
2023/10/19 08:07:30;;;;;;;14.10;6.10;;;14.80;50.70;;;;;;5017850;28;46711;-67
2023/10/19 08:09:58;;;;;;;23.53;6.53;;;15.00;50.40;;;;;;5018473;28;47163;-68
2023/10/19 08:12:26;;;;;;;16.73;5.43;;;15.10;49.90;;;;;;5015939;28;46468;-69
2023/10/19 08:14:55;;;;;;;30.10;5.17;;;15.20;49.70;;;;;;5018332;28;45851;-67
2023/10/19 08:17:21;;;;;;;22.30;5.33;;;15.30;49.50;;;;;;5017884;28;46594;-67
2023/10/19 08:19:47;;;;;;;31.73;6.67;;;15.30;49.70;;;;;;5016381;28;46495;-67
2023/10/19 08:22:14;;;;;;;12.50;6.00;;;15.40;49.60;;;;;;5018618;28;46524;-69
2023/10/19 08:24:43;;;;;;;11.73;4.40;;;15.40;49.60;;;;;;5015924;28;46371;-69
2023/10/19 08:27:12;;;;;;;17.33;4.97;;;15.50;49.50;;;;;;5015403;28;46606;-67
2023/10/19 08:29:38;;;;;;;12.13;4.77;;;15.50;49.30;;;;;;5016965;28;46899;-67
2023/10/19 08:32:04;;;;;;;12.50;4.70;;;15.50;49.40;;;;;;5017262;28;46455;-68
2023/10/19 08:34:36;;;;;;;10.97;4.60;;;15.50;49.80;;;;;;5020917;28;46394;-67
2023/10/19 08:37:05;;;;;;;9.23;4.37;;;15.60;49.40;;;;;;5015288;28;46485;-67
2023/10/19 08:39:38;;;;;;;15.80;4.90;;;15.70;49.50;;;;;;5017734;28;47258;-68
2023/10/19 08:42:04;;;;;;;18.83;5.17;;;15.70;49.40;;;;;;5017251;28;46467;-70
2023/10/19 08:44:30;;;;;;;13.13;5.10;;;15.70;49.60;;;;;;5017387;28;46309;-70
2023/10/19 08:46:57;;;;;;;10.67;4.53;;;15.70;49.60;;;;;;5016206;28;46493;-69
2023/10/19 08:49:23;;;;;;;6.97;4.50;;;15.70;49.80;;;;;;5017014;28;47998;-68
2023/10/19 08:51:51;;;;;;;10.50;4.87;;;15.70;49.80;;;;;;5017085;28;46702;-68
2023/10/19 08:54:17;;;;;;;8.10;4.13;;;15.70;50.00;;;;;;5018884;28;46312;-67
2023/10/19 08:56:44;;;;;;;17.13;4.90;;;15.70;49.70;;;;;;5025197;23;46509;-69
2023/10/19 08:59:10;;;;;;;16.33;5.03;;;15.80;49.50;;;;;;5019064;28;46481;-72
2023/10/19 09:01:36;;;;;;;8.57;5.23;;;15.90;49.30;;;;;;5017878;28;46480;-70
2023/10/19 09:04:05;;;;;;;13.23;4.70;;;16.10;48.80;;;;;;5017461;28;46416;-72
2023/10/19 09:06:40;;;;;;;7.53;4.40;;;16.20;48.60;;;;;;5018260;28;45904;-70
2023/10/19 09:09:19;;;;;;;13.13;4.40;;;16.40;48.50;;;;;;5016738;28;46930;-72
2023/10/19 09:11:48;;;;;;;7.63;4.93;;;16.30;48.50;;;;;;5015293;28;46922;-71
2023/10/19 09:14:30;;;;;;;9.13;5.20;;;16.30;48.30;;;;;;5018743;28;46494;-71
2023/10/19 09:16:57;;;;;;;8.83;5.80;;;16.40;48.40;;;;;;5016960;28;46402;-71
2023/10/19 09:19:40;;;;;;;7.30;4.70;;;16.40;48.50;;;;;;5016516;28;48105;-71
2023/10/19 09:22:18;;;;;;;9.30;4.70;;;16.40;48.10;;;;;;5017810;28;46430;-70
2023/10/19 09:24:49;;;;;;;10.13;4.40;;;16.40;48.30;;;;;;5017973;28;46524;-71
2023/10/19 09:27:17;;;;;;;9.23;4.70;;;16.50;48.20;;;;;;5018372;28;46446;-72
2023/10/19 09:29:43;;;;;;;11.30;5.10;;;16.60;48.20;;;;;;5016915;28;47014;-73
2023/10/19 09:32:09;;;;;;;8.83;3.90;;;16.70;48.10;;;;;;5018073;28;46511;-70
2023/10/19 09:34:35;;;;;;;6.77;4.50;;;16.70;47.70;;;;;;5018116;28;46462;-70
2023/10/19 09:37:03;;;;;;;8.00;4.80;;;16.80;47.70;;;;;;5017333;28;46420;-70
2023/10/19 09:39:35;;;;;;;7.93;4.47;;;17.00;47.30;;;;;;5018260;28;48101;-70
2023/10/19 09:42:10;;;;;;;9.07;4.33;;;17.10;46.70;;;;;;5020082;28;46746;-71
2023/10/19 09:44:45;;;;;;;7.00;4.47;;;17.30;46.40;;;;;;5020129;28;46491;-70
2023/10/19 09:47:13;;;;;;;8.53;4.87;;;17.40;46.10;;;;;;5021631;28;46610;-71
2023/10/19 09:49:42;;;;;;;9.13;5.10;;;17.40;46.10;;;;;;5021115;28;46961;-71
2023/10/19 09:52:10;;;;;;;28.93;17.63;;;17.40;46.20;;;;;;5020244;28;46446;-70
2023/10/19 09:54:47;;;;;;;12.03;6.60;;;17.40;46.80;;;;;;5020645;28;46412;-72
2023/10/19 09:57:17;;;;;;;10.20;5.70;;;17.40;46.80;;;;;;5020843;28;46359;-71
2023/10/19 09:59:49;;;;;;;10.13;6.00;;;17.50;47.00;;;;;;5020968;28;47091;-70
2023/10/19 10:02:17;;;;;;;8.97;5.13;;;17.60;46.70;;;;;;5020121;28;46579;-71
2023/10/19 10:04:45;;;;;;;32.77;5.60;;;17.70;46.30;;;;;;5017644;28;46502;-71
2023/10/19 10:07:11;;;;;;;10.50;6.27;;;17.70;46.40;;;;;;5021309;28;46409;-71
2023/10/19 10:09:43;;;;;;;9.77;5.33;;;17.70;46.60;;;;;;5020079;28;46555;-70
2023/10/19 10:12:27;;;;;;;7.50;4.43;;;17.80;46.20;;;;;;5021947;28;46498;-71
2023/10/19 10:15:11;;;;;;;13.93;4.67;;;17.90;45.70;;;;;;5021282;28;46465;-71
2023/10/19 10:17:38;;;;;;;9.10;5.60;;;18.10;45.90;;;;;;5019478;28;46442;-71
2023/10/19 10:20:18;;;;;;;11.27;4.80;;;18.20;47.20;;;;;;5018624;28;46845;-71
2023/10/19 10:22:44;;;;;;;7.90;4.60;;;18.20;46.00;;;;;;5020348;28;46493;-71
2023/10/19 10:25:27;;;;;;;11.80;5.30;;;18.40;45.50;;;;;;5020630;28;46666;-70
2023/10/19 10:27:54;;;;;;;36.77;25.50;;;18.40;44.90;;;;;;5019569;28;46482;-72
2023/10/19 10:30:20;;;;;;;70.03;45.97;;;18.50;44.70;;;;;;5021941;28;46372;-70
2023/10/19 10:32:55;;;;;;;38.67;26.10;;;18.60;44.80;;;;;;5018274;28;46501;-70
2023/10/19 10:35:53;;;;;;;21.90;15.20;;;18.70;44.70;;;;;;5020503;28;46460;-71
2023/10/19 10:38:19;;;;;;;13.47;7.40;;;18.80;44.70;;;;;;5017878;28;46538;-71
2023/10/19 10:40:47;;;;;;;12.10;4.97;;;18.80;44.70;;;;;;5019180;28;47403;-72
2023/10/19 10:43:13;;;;;;;9.40;5.23;;;18.90;44.40;;;;;;5019125;28;46458;-71
2023/10/19 10:45:39;;;;;;;9.03;4.77;;;19.10;43.90;;;;;;5023722;28;46619;-72
2023/10/19 10:48:14;;;;;;;7.50;4.73;;;19.20;43.20;;;;;;5020998;28;46723;-71
2023/10/19 10:50:41;;;;;;;9.07;4.70;;;19.30;42.60;;;;;;5021413;28;46429;-70
2023/10/19 10:53:07;;;;;;;8.00;5.33;;;19.30;42.70;;;;;;5018204;28;46492;-67
2023/10/19 10:55:33;;;;;;;5.37;3.70;;;19.30;42.70;;;;;;5018798;28;46512;-67
2023/10/19 10:57:59;;;;;;;9.10;5.90;;;19.20;42.80;;;;;;5017309;28;46816;-67
2023/10/19 11:00:28;;;;;;;9.33;5.13;;;19.10;43.10;;;;;;5017987;28;46148;-68
2023/10/19 11:03:04;;;;;;;11.20;3.50;;;19.10;44.30;;;;;;5017524;28;46361;-66
2023/10/19 11:05:29;;;;;;;6.90;3.83;;;19.00;43.00;;;;;;5020032;28;46363;-68
2023/10/19 11:08:07;;;;;;;8.80;5.50;;;19.00;43.30;;;;;;5017379;28;46412;-67
2023/10/19 11:10:33;;;;;;;6.20;4.00;;;18.90;43.20;;;;;;5019068;28;46406;-67
2023/10/19 11:13:08;;;;;;;7.60;4.10;;;18.90;43.40;;;;;;5017689;28;46753;-68
2023/10/19 11:15:36;;;;;;;7.73;4.57;;;19.00;42.90;;;;;;5018515;28;46519;-68
2023/10/19 11:18:03;;;;;;;14.03;7.63;;;19.10;42.70;;;;;;5017827;28;46461;-68
2023/10/19 11:20:28;;;;;;;9.70;4.60;;;19.20;42.40;;;;;;5017997;28;46495;-65
2023/10/19 11:22:56;;;;;;;6.80;3.67;;;19.20;42.10;;;;;;5017209;28;46433;-67
2023/10/19 11:25:30;;;;;;;7.80;3.90;;;19.20;41.90;;;;;;5019118;28;46556;-67
2023/10/19 11:28:00;;;;;;;8.47;4.17;;;19.40;41.30;;;;;;5017988;28;46417;-69
2023/10/19 11:30:27;;;;;;;8.60;2.90;;;19.50;41.00;;;;;;5017553;28;46767;-67
2023/10/19 11:32:58;;;;;;;7.43;3.40;;;19.60;40.10;;;;;;5017864;28;46453;-66
2023/10/19 11:35:25;;;;;;;6.23;3.17;;;19.70;39.70;;;;;;5017161;28;46496;-66
2023/10/19 11:37:53;;;;;;;6.20;3.43;;;19.70;39.30;;;;;;5017526;28;46783;-66
2023/10/19 11:40:23;;;;;;;6.93;3.53;;;19.80;38.90;;;;;;5017863;28;46377;-67
2023/10/19 11:42:50;;;;;;;6.97;3.07;;;19.80;38.40;;;;;;5015243;28;46513;-66
2023/10/19 11:45:16;;;;;;;10.33;3.90;;;19.80;38.30;;;;;;5019401;28;46465;-67
2023/10/19 11:47:44;;;;;;;5.90;4.00;;;19.70;38.60;;;;;;5019418;28;45849;-68
2023/10/19 11:50:18;;;;;;;10.03;3.53;;;19.60;38.60;;;;;;5017829;28;46058;-67
2023/10/19 11:52:45;;;;;;;7.83;3.73;;;19.60;38.70;;;;;;5018900;28;46353;-68
2023/10/19 11:55:15;;;;;;;7.20;3.40;;;19.70;38.50;;;;;;5016554;28;46371;-67
2023/10/19 11:57:43;;;;;;;9.67;3.80;;;19.80;38.00;;;;;;5017118;28;46546;-70
2023/10/19 12:00:13;;;;;;;7.07;3.70;;;20.00;37.60;;;;;;5016711;28;48162;-66
2023/10/19 12:02:41;;;;;;;7.27;3.33;;;20.40;36.70;;;;;;5017445;28;46446;-67
2023/10/19 12:05:09;;;;;;;5.93;2.97;;;20.90;34.90;;;;;;5015618;28;46448;-66
2023/10/19 12:07:39;;;;;;;4.93;2.57;;;21.20;34.40;;;;;;5016771;28;46453;-67
2023/10/19 12:10:10;;;;;;;7.67;2.77;;;21.30;33.80;;;;;;5017565;28;46412;-67
2023/10/19 12:12:37;;;;;;;4.90;2.53;;;21.20;33.10;;;;;;5016752;28;46510;-67
2023/10/19 12:15:05;;;;;;;5.67;2.40;;;21.20;32.90;;;;;;5017454;28;46746;-67
2023/10/19 12:17:33;;;;;;;4.80;2.40;;;21.10;33.20;;;;;;5018381;28;46722;-68
2023/10/19 12:19:59;;;;;;;5.33;2.50;;;21.10;32.80;;;;;;5015571;28;46436;-66
2023/10/19 12:22:31;;;;;;;5.37;2.60;;;21.00;32.60;;;;;;5015045;28;46509;-68
2023/10/19 12:24:58;;;;;;;4.80;2.97;;;20.70;33.10;;;;;;5016832;28;46422;-67
2023/10/19 12:27:24;;;;;;;5.50;2.70;;;20.60;33.20;;;;;;5018290;28;46648;-65
2023/10/19 12:29:52;;;;;;;7.53;2.43;;;20.50;33.80;;;;;;5017423;28;46265;-66
2023/10/19 12:32:18;;;;;;;10.10;2.53;;;20.60;33.20;;;;;;5017376;28;46679;-66
2023/10/19 12:34:44;;;;;;;7.13;3.00;;;20.80;32.50;;;;;;5017766;28;45943;-67
2023/10/19 12:37:12;;;;;;;9.50;3.17;;;21.00;31.50;;;;;;5017240;28;46428;-67
2023/10/19 12:39:44;;;;;;;9.40;3.20;;;21.00;31.00;;;;;;5017577;28;47132;-66
2023/10/19 12:42:10;;;;;;;10.47;5.00;;;20.70;31.70;;;;;;5017489;28;46655;-67
2023/10/19 12:44:39;;;;;;;13.43;7.00;;;20.50;31.30;;;;;;5016663;28;46432;-68
2023/10/19 12:47:15;;;;;;;12.50;4.10;;;20.40;32.20;;;;;;5017184;28;46846;-67
2023/10/19 12:49:40;;;;;;;5.30;2.97;;;20.30;32.40;;;;;;5016054;28;46378;-68
2023/10/19 12:52:10;;;;;;;6.33;2.67;;;20.50;32.00;;;;;;5017999;28;46873;-67
2023/10/19 12:54:37;;;;;;;15.70;5.43;;;20.60;31.10;;;;;;5018015;28;46805;-67
2023/10/19 12:57:07;;;;;;;10.10;5.33;;;20.50;31.20;;;;;;5017769;28;46417;-67
2023/10/19 12:59:39;;;;;;;5.10;2.20;;;20.40;31.00;;;;;;5018269;28;47253;-68
2023/10/19 13:02:08;;;;;;;4.23;2.53;;;20.20;30.10;;;;;;5015947;28;46400;-65
2023/10/19 13:04:34;;;;;;;6.33;2.43;;;20.00;30.60;;;;;;5018141;28;46302;-67
2023/10/19 13:06:59;;;;;;;6.67;2.13;;;19.90;31.30;;;;;;5017401;28;46529;-66
2023/10/19 13:09:32;;;;;;;4.23;2.17;;;20.00;31.30;;;;;;5016887;28;46465;-68